createdAt,value
2024-02-22T00:01:09.802Z,90.26
2024-02-22T00:03:36.492Z,91.10
2024-02-22T00:06:03.389Z,90.21
2024-02-22T00:08:30.100Z,91.33
2024-02-22T00:10:59.044Z,91.51
2024-02-22T00:13:26.447Z,91.74
2024-02-22T00:15:53.232Z,92.56
2024-02-22T00:18:20.038Z,93.13
2024-02-22T00:20:46.811Z,92.51
2024-02-22T00:23:13.592Z,92.73
2024-02-22T00:25:40.439Z,92.75
2024-02-22T00:28:07.048Z,93.04
2024-02-22T00:30:33.676Z,93.05
2024-02-22T00:33:00.586Z,93.07
2024-02-22T00:35:28.114Z,92.99
2024-02-22T00:37:54.854Z,93.39
2024-02-22T00:40:21.560Z,93.11
2024-02-22T00:42:48.176Z,93.22
2024-02-22T00:45:15.797Z,93.56
2024-02-22T00:47:42.502Z,94.18
2024-02-22T00:50:09.769Z,93.96
2024-02-22T00:52:36.556Z,94.09
2024-02-22T00:55:03.427Z,93.74
2024-02-22T00:57:30.276Z,94.15
2024-02-22T00:59:56.889Z,94.03
2024-02-22T01:02:27.350Z,93.95
2024-02-22T01:04:54.909Z,94.66
2024-02-22T01:07:24.615Z,93.89
2024-02-22T01:09:51.284Z,94.07
2024-02-22T01:12:17.983Z,94.38
2024-02-22T01:14:44.684Z,94.19
2024-02-22T01:17:11.518Z,94.69
2024-02-22T01:19:38.286Z,95.04
2024-02-22T01:22:05.508Z,94.55
2024-02-22T01:24:32.725Z,94.25
2024-02-22T01:26:59.510Z,94.60
2024-02-22T01:29:27.780Z,95.10
2024-02-22T01:31:54.517Z,94.73
2024-02-22T01:34:21.334Z,94.88
2024-02-22T01:36:49.123Z,95.10
2024-02-22T01:39:16.082Z,94.85
2024-02-22T01:41:42.702Z,94.92
2024-02-22T01:44:09.636Z,94.65
2024-02-22T01:46:36.491Z,94.55
2024-02-22T01:49:03.469Z,94.62
2024-02-22T01:51:31.137Z,94.77
2024-02-22T01:53:58.405Z,95.33
2024-02-22T01:56:26.768Z,95.64
2024-02-22T01:58:53.800Z,96.08
2024-02-22T02:01:23.867Z,95.79
2024-02-22T02:03:51.967Z,96.00
2024-02-22T02:06:19.128Z,95.72
2024-02-22T02:08:46.807Z,95.75
2024-02-22T02:11:13.615Z,96.17
2024-02-22T02:13:40.452Z,96.49
2024-02-22T02:16:07.551Z,97.30
2024-02-22T02:18:34.429Z,97.35
2024-02-22T02:21:14.643Z,97.92
2024-02-22T02:24:01.554Z,97.99
2024-02-22T02:26:28.811Z,98.27
2024-02-22T02:28:55.653Z,98.06
2024-02-22T02:31:22.569Z,98.45
2024-02-22T02:33:49.358Z,98.87
2024-02-22T02:36:16.058Z,99.51
2024-02-22T02:38:42.636Z,100.00
2024-02-22T02:41:09.356Z,100.00
2024-02-22T02:43:36.038Z,100.00
2024-02-22T02:46:02.681Z,100.00
2024-02-22T02:48:29.331Z,100.00
2024-02-22T02:50:56.092Z,100.00
2024-02-22T02:53:25.561Z,100.00
2024-02-22T02:55:52.392Z,100.00
2024-02-22T02:58:19.114Z,100.00
2024-02-22T03:00:45.785Z,100.00
2024-02-22T03:03:12.467Z,100.00
2024-02-22T03:05:42.738Z,100.00
2024-02-22T03:08:10.421Z,100.00
2024-02-22T03:10:39.922Z,100.00
2024-02-22T03:13:10.120Z,100.00
2024-02-22T03:15:39.898Z,100.00
2024-02-22T03:18:07.808Z,100.00
2024-02-22T03:20:35.093Z,100.00
2024-02-22T03:23:01.916Z,100.00
2024-02-22T03:25:31.788Z,100.00
2024-02-22T03:28:00.318Z,100.00
2024-02-22T03:30:28.806Z,100.00
2024-02-22T03:32:55.772Z,100.00
2024-02-22T03:35:24.178Z,100.00
2024-02-22T03:37:51.938Z,100.00
2024-02-22T03:40:18.739Z,100.00
2024-02-22T03:42:45.838Z,100.00
2024-02-22T03:45:12.588Z,100.00
2024-02-22T03:47:39.378Z,100.00
2024-02-22T03:50:06.506Z,100.00
2024-02-22T03:52:33.333Z,100.00
2024-02-22T03:55:00.193Z,100.00
2024-02-22T03:57:27.141Z,100.00
2024-02-22T03:59:53.838Z,100.00
2024-02-22T04:02:21.353Z,100.00
2024-02-22T04:04:52.349Z,100.00
2024-02-22T04:07:19.356Z,100.00
2024-02-22T04:09:46.354Z,100.00
2024-02-22T04:12:13.077Z,100.00
2024-02-22T04:14:39.891Z,100.00
2024-02-22T04:17:06.687Z,100.00
2024-02-22T04:19:33.463Z,100.00
2024-02-22T04:22:00.320Z,100.00
2024-02-22T04:24:26.991Z,100.00
2024-02-22T04:26:53.744Z,100.00
2024-02-22T04:29:21.041Z,100.00
2024-02-22T04:31:48.623Z,100.00
2024-02-22T04:34:15.435Z,100.00
2024-02-22T04:36:42.528Z,100.00
2024-02-22T04:39:10.789Z,100.00
2024-02-22T04:41:38.499Z,100.00
2024-02-22T04:44:06.298Z,100.00
2024-02-22T04:46:39.117Z,100.00
2024-02-22T04:49:06.702Z,100.00
2024-02-22T04:51:34.752Z,100.00
2024-02-22T04:54:05.372Z,100.00
2024-02-22T04:56:35.610Z,100.00
2024-02-22T04:59:02.282Z,100.00
2024-02-22T05:01:29.014Z,100.00
2024-02-22T05:03:56.203Z,100.00
2024-02-22T05:06:23.268Z,100.00
2024-02-22T05:08:50.196Z,100.00
2024-02-22T05:11:17.128Z,100.00
2024-02-22T05:13:44.253Z,100.00
2024-02-22T05:16:11.217Z,100.00
2024-02-22T05:18:39.115Z,100.00
2024-02-22T05:21:06.467Z,100.00
2024-02-22T05:23:33.474Z,100.00
2024-02-22T05:26:00.715Z,100.00
2024-02-22T05:28:27.732Z,100.00
2024-02-22T05:30:54.706Z,100.00
2024-02-22T05:33:21.709Z,100.00
2024-02-22T05:35:54.642Z,100.00
2024-02-22T05:38:21.403Z,100.00
2024-02-22T05:40:48.224Z,100.00
2024-02-22T05:43:14.846Z,100.00
2024-02-22T05:45:46.860Z,100.00
2024-02-22T05:48:14.850Z,100.00
2024-02-22T05:50:41.908Z,100.00
2024-02-22T05:53:08.698Z,100.00
2024-02-22T05:55:35.452Z,100.00
2024-02-22T05:58:04.218Z,100.00
2024-02-22T06:00:30.930Z,100.00
2024-02-22T06:02:57.656Z,100.00
2024-02-22T06:05:24.454Z,100.00
2024-02-22T06:07:51.089Z,100.00
2024-02-22T06:10:17.953Z,100.00
2024-02-22T06:12:45.496Z,100.00
2024-02-22T06:15:12.219Z,100.00
2024-02-22T06:17:38.896Z,100.00
2024-02-22T06:20:09.322Z,100.00
2024-02-22T06:22:36.172Z,100.00
2024-02-22T06:25:03.004Z,100.00
2024-02-22T06:27:29.986Z,100.00
2024-02-22T06:29:56.621Z,100.00
2024-02-22T06:32:25.201Z,100.00
2024-02-22T06:34:52.140Z,100.00
2024-02-22T06:37:23.088Z,99.65
2024-02-22T06:39:51.268Z,99.04
2024-02-22T06:42:17.901Z,98.56
2024-02-22T06:44:46.557Z,97.93
2024-02-22T06:47:14.108Z,98.12
2024-02-22T06:49:42.466Z,97.90
2024-02-22T06:52:09.431Z,98.49
2024-02-22T06:54:39.120Z,99.07
2024-02-22T06:57:08.879Z,98.62
2024-02-22T06:59:35.569Z,96.67
2024-02-22T07:02:02.423Z,92.13
2024-02-22T07:04:29.315Z,88.32
2024-02-22T07:06:56.121Z,85.75
2024-02-22T07:09:23.162Z,84.58
2024-02-22T07:11:50.379Z,81.95
2024-02-22T07:14:17.524Z,79.10
2024-02-22T07:16:46.185Z,76.00
2024-02-22T07:19:13.108Z,77.61
2024-02-22T07:21:39.868Z,76.01
2024-02-22T07:24:06.704Z,75.69
2024-02-22T07:26:33.645Z,75.30
2024-02-22T07:29:01.035Z,76.43
2024-02-22T07:31:27.795Z,74.33
2024-02-22T07:33:55.565Z,72.03
2024-02-22T07:36:22.685Z,70.74
2024-02-22T07:38:49.338Z,70.14
2024-02-22T07:41:18.934Z,69.22
2024-02-22T07:43:46.957Z,68.19
2024-02-22T07:46:15.703Z,67.95
2024-02-22T07:48:42.915Z,69.19
2024-02-22T07:51:10.632Z,67.21
2024-02-22T07:53:38.647Z,66.68
2024-02-22T07:56:06.690Z,69.20
2024-02-22T07:58:45.437Z,66.01
2024-02-22T08:01:12.479Z,64.25
2024-02-22T08:03:39.238Z,64.17
2024-02-22T08:06:06.408Z,63.98
2024-02-22T08:08:33.142Z,62.27
2024-02-22T08:11:00.086Z,63.29
2024-02-22T08:13:27.258Z,61.75
2024-02-22T08:15:53.910Z,61.72
2024-02-22T08:18:20.634Z,60.79
2024-02-22T08:20:47.382Z,65.71
2024-02-22T08:23:15.933Z,66.25
2024-02-22T08:25:42.869Z,64.19
2024-02-22T08:28:12.525Z,63.51
2024-02-22T08:30:39.236Z,60.35
2024-02-22T08:33:06.339Z,62.30
2024-02-22T08:35:33.204Z,62.57
2024-02-22T08:38:00.308Z,61.24
2024-02-22T08:40:38.040Z,56.63
2024-02-22T08:43:06.516Z,58.84
2024-02-22T08:45:33.448Z,56.21
2024-02-22T08:48:00.323Z,57.20
2024-02-22T08:50:27.181Z,55.89
2024-02-22T08:52:54.460Z,55.21
2024-02-22T08:55:21.198Z,53.09
2024-02-22T08:57:52.569Z,51.21
2024-02-22T09:00:21.116Z,51.13
2024-02-22T09:02:47.831Z,48.90
2024-02-22T09:05:14.622Z,48.39
2024-02-22T09:07:41.458Z,48.81
2024-02-22T09:10:08.920Z,50.39
2024-02-22T09:12:35.922Z,47.02
2024-02-22T09:15:03.703Z,45.87
2024-02-22T09:17:30.501Z,43.16
2024-02-22T09:19:57.223Z,43.31
2024-02-22T09:22:23.880Z,43.23
2024-02-22T09:24:50.532Z,42.47
2024-02-22T09:27:17.201Z,40.25
2024-02-22T09:29:44.440Z,41.38
2024-02-22T09:32:11.528Z,40.20
2024-02-22T09:34:39.073Z,42.27
2024-02-22T09:37:06.996Z,41.32
2024-02-22T09:39:34.262Z,42.89
2024-02-22T09:42:01.565Z,42.14
2024-02-22T09:44:29.647Z,41.65
2024-02-22T09:46:56.395Z,40.88
2024-02-22T09:49:24.576Z,40.53
2024-02-22T09:51:55.257Z,41.69
2024-02-22T09:54:22.977Z,42.15
2024-02-22T09:56:50.638Z,44.65
2024-02-22T09:59:19.011Z,45.52
2024-02-22T10:01:46.555Z,45.79
2024-02-22T10:04:20.444Z,45.66
2024-02-22T10:06:51.303Z,45.73
2024-02-22T10:09:17.989Z,44.60
2024-02-22T10:11:46.375Z,43.58
2024-02-22T10:14:18.114Z,43.38
2024-02-22T10:16:48.112Z,43.88
2024-02-22T10:19:16.253Z,44.63
2024-02-22T10:21:45.167Z,43.31
2024-02-22T10:24:12.027Z,43.02
2024-02-22T10:26:39.049Z,43.91
2024-02-22T10:29:09.040Z,44.98
2024-02-22T10:31:47.600Z,46.15
2024-02-22T10:34:16.005Z,46.05
2024-02-22T10:36:45.911Z,47.94
2024-02-22T10:39:14.074Z,46.73
2024-02-22T10:41:41.302Z,45.31
2024-02-22T10:44:08.495Z,46.94
2024-02-22T10:46:39.578Z,45.64
2024-02-22T10:49:13.318Z,47.22
2024-02-22T10:51:41.634Z,47.65
2024-02-22T10:54:11.776Z,47.09
2024-02-22T10:56:49.627Z,46.48
2024-02-22T10:59:21.837Z,45.23
2024-02-22T11:01:50.376Z,46.37
2024-02-22T11:04:17.579Z,45.31
2024-02-22T11:06:45.057Z,45.95
2024-02-22T11:09:23.284Z,45.10
2024-02-22T11:11:52.989Z,46.01
2024-02-22T11:14:34.507Z,46.72
2024-02-22T11:17:07.256Z,47.92
2024-02-22T11:19:35.130Z,44.35
2024-02-22T11:22:01.999Z,44.20
2024-02-22T11:24:29.103Z,44.34
2024-02-22T11:27:01.087Z,42.34
2024-02-22T11:29:30.601Z,43.93
2024-02-22T11:32:01.560Z,43.29
2024-02-22T11:34:29.141Z,43.45
2024-02-22T11:36:58.008Z,42.54
2024-02-22T11:39:25.593Z,42.33
2024-02-22T11:41:52.262Z,39.95
2024-02-22T11:44:19.076Z,40.11
2024-02-22T11:46:46.134Z,36.93
2024-02-22T11:49:13.199Z,36.93
2024-02-22T11:51:41.675Z,36.71
2024-02-22T11:54:08.514Z,34.65
2024-02-22T11:56:36.850Z,33.59
2024-02-22T11:59:04.291Z,34.01
2024-02-22T12:01:32.508Z,32.40
2024-02-22T12:03:59.802Z,31.34
2024-02-22T12:06:26.758Z,30.55
2024-02-22T12:08:55.310Z,31.12
2024-02-22T12:11:23.085Z,31.18
2024-02-22T12:14:00.602Z,30.16
2024-02-22T12:16:28.408Z,28.60
2024-02-22T12:18:55.346Z,29.43
2024-02-22T12:21:24.300Z,29.61
2024-02-22T12:23:51.357Z,29.38
2024-02-22T12:26:20.779Z,27.50
2024-02-22T12:28:51.699Z,27.42
2024-02-22T12:31:20.071Z,28.29
2024-02-22T12:33:51.034Z,26.31
2024-02-22T12:36:25.516Z,28.07
2024-02-22T12:38:52.978Z,27.89
2024-02-22T12:41:20.205Z,27.93
2024-02-22T12:43:49.320Z,28.16
2024-02-22T12:46:18.018Z,27.68
2024-02-22T12:48:45.675Z,28.71
2024-02-22T12:51:13.597Z,28.35
2024-02-22T12:53:41.089Z,30.11
2024-02-22T12:56:08.413Z,28.80
2024-02-22T12:58:35.424Z,29.70
2024-02-22T13:01:03.769Z,27.91
2024-02-22T13:03:30.608Z,26.19
2024-02-22T13:05:57.293Z,25.66
2024-02-22T13:08:29.923Z,28.10
2024-02-22T13:10:59.059Z,27.41
2024-02-22T13:13:26.270Z,27.59
2024-02-22T13:15:53.276Z,27.38
2024-02-22T13:18:20.158Z,27.96
2024-02-22T13:20:47.013Z,28.73
2024-02-22T13:23:14.407Z,29.05
2024-02-22T13:25:41.325Z,30.27
2024-02-22T13:28:08.391Z,29.39
2024-02-22T13:30:35.268Z,29.66
2024-02-22T13:33:02.212Z,29.37
2024-02-22T13:35:29.416Z,30.61
2024-02-22T13:37:57.090Z,30.37
2024-02-22T13:40:24.359Z,30.11
2024-02-22T13:42:51.349Z,30.49
2024-02-22T13:45:18.123Z,31.53
2024-02-22T13:47:44.896Z,33.28
2024-02-22T13:50:11.632Z,35.20
2024-02-22T13:52:38.402Z,36.55
2024-02-22T13:55:09.356Z,37.89
2024-02-22T13:57:36.318Z,38.44
2024-02-22T14:00:05.179Z,38.95
2024-02-22T14:02:31.860Z,37.96
2024-02-22T14:04:58.655Z,38.41
2024-02-22T14:07:26.261Z,38.26
2024-02-22T14:09:53.639Z,37.66
2024-02-22T14:12:20.806Z,37.77
2024-02-22T14:14:47.550Z,38.37
2024-02-22T14:17:14.292Z,37.69
2024-02-22T14:19:41.122Z,39.35
2024-02-22T14:22:09.221Z,39.78
2024-02-22T14:24:36.012Z,39.81
2024-02-22T14:29:37.737Z,39.41
2024-02-22T14:32:06.597Z,39.83
2024-02-22T14:34:34.494Z,40.95
2024-02-22T14:37:01.676Z,40.74
2024-02-22T14:39:28.262Z,40.73
2024-02-22T14:41:54.970Z,41.60
2024-02-22T14:44:22.038Z,41.82
2024-02-22T14:46:49.052Z,41.41
2024-02-22T14:49:15.960Z,41.98
2024-02-22T14:51:42.624Z,42.01
2024-02-22T14:54:09.319Z,42.75
2024-02-22T14:56:35.993Z,42.53
2024-02-22T14:59:02.832Z,42.18
2024-02-22T15:01:29.502Z,42.02
2024-02-22T15:03:56.405Z,41.80
2024-02-22T15:06:23.421Z,42.25
2024-02-22T15:08:50.161Z,41.89
2024-02-22T15:11:17.012Z,41.97
2024-02-22T15:13:43.948Z,41.76
2024-02-22T15:16:11.935Z,42.30
2024-02-22T15:18:40.449Z,42.62
2024-02-22T15:21:07.943Z,42.68
2024-02-22T15:23:37.276Z,43.17
2024-02-22T15:26:08.366Z,44.97
2024-02-22T15:28:35.130Z,48.01
2024-02-22T15:31:01.861Z,49.87
2024-02-22T15:33:28.809Z,51.14
2024-02-22T15:35:55.740Z,52.64
2024-02-22T15:38:22.630Z,53.81
2024-02-22T15:40:49.748Z,55.13
2024-02-22T15:43:16.703Z,54.99
2024-02-22T15:45:44.097Z,55.47
2024-02-22T15:48:12.419Z,55.61
2024-02-22T15:50:39.249Z,55.55
2024-02-22T15:53:06.709Z,56.36
2024-02-22T15:55:34.078Z,56.40
2024-02-22T15:58:03.170Z,57.16
2024-02-22T16:00:30.616Z,58.44
2024-02-22T16:02:59.001Z,58.82
2024-02-22T16:05:26.050Z,59.42
2024-02-22T16:07:52.937Z,59.61
2024-02-22T16:10:20.231Z,59.89
2024-02-22T16:12:47.094Z,59.75
2024-02-22T16:15:13.986Z,60.59
2024-02-22T16:17:41.662Z,61.08
2024-02-22T16:20:11.648Z,61.41
2024-02-22T16:22:39.258Z,62.13
2024-02-22T16:25:07.694Z,62.92
2024-02-22T16:27:34.567Z,63.89
2024-02-22T16:30:01.196Z,63.93
2024-02-22T16:32:27.940Z,64.05
2024-02-22T16:34:54.703Z,64.72
2024-02-22T16:37:21.394Z,65.16
2024-02-22T16:39:48.107Z,65.93
2024-02-22T16:42:14.734Z,66.39
2024-02-22T16:44:42.520Z,67.54
2024-02-22T16:47:15.409Z,68.73
2024-02-22T16:49:42.905Z,68.79
2024-02-22T16:52:09.777Z,70.26
2024-02-22T16:54:37.193Z,71.45
2024-02-22T16:57:06.838Z,71.76
2024-02-22T16:59:33.676Z,71.57
2024-02-22T17:02:00.935Z,71.94
2024-02-22T17:04:27.635Z,72.51
2024-02-22T17:06:59.790Z,73.23
2024-02-22T17:09:27.480Z,74.11
2024-02-22T17:11:57.422Z,75.01
2024-02-22T17:14:24.507Z,74.85
2024-02-22T17:16:51.769Z,75.11
2024-02-22T17:19:18.763Z,75.50
2024-02-22T17:21:49.581Z,75.77
2024-02-22T17:24:18.665Z,75.78
2024-02-22T17:26:45.418Z,75.94
2024-02-22T17:29:12.147Z,76.67
2024-02-22T17:31:39.801Z,77.13
2024-02-22T17:34:06.474Z,77.29
2024-02-22T17:36:33.155Z,78.08
2024-02-22T17:38:59.912Z,78.08
2024-02-22T17:41:26.680Z,78.12
2024-02-22T17:43:53.862Z,77.98
2024-02-22T17:46:20.876Z,78.61
2024-02-22T17:48:47.765Z,78.80
2024-02-22T17:51:14.427Z,79.23
2024-02-22T17:53:41.391Z,80.08
2024-02-22T17:56:08.191Z,80.15
2024-02-22T17:58:42.444Z,80.05
2024-02-22T18:01:14.967Z,80.26
2024-02-22T18:03:42.051Z,80.63
2024-02-22T18:06:10.147Z,80.91
2024-02-22T18:08:37.944Z,81.40
2024-02-22T18:11:05.622Z,81.57
2024-02-22T18:13:32.497Z,82.32
2024-02-22T18:15:59.371Z,82.26
2024-02-22T18:18:26.277Z,82.72
2024-02-22T18:20:54.092Z,83.14
2024-02-22T18:23:20.893Z,82.93
2024-02-22T18:25:47.635Z,82.40
2024-02-22T18:28:14.340Z,82.24
2024-02-22T18:30:41.146Z,82.31
2024-02-22T18:33:08.306Z,82.42
2024-02-22T18:35:35.294Z,82.08
2024-02-22T18:38:02.997Z,82.38
2024-02-22T18:40:31.516Z,82.70
2024-02-22T18:42:59.562Z,83.54
2024-02-22T18:45:27.006Z,84.07
2024-02-22T18:47:56.532Z,84.18
2024-02-22T18:50:23.641Z,85.07
2024-02-22T18:52:50.450Z,85.31
2024-02-22T18:55:17.151Z,85.80
2024-02-22T18:57:43.852Z,86.07
2024-02-22T19:00:12.477Z,85.80
2024-02-22T19:02:40.167Z,86.33
2024-02-22T19:05:07.734Z,86.14
2024-02-22T19:07:39.221Z,85.93
2024-02-22T19:10:10.351Z,86.50
2024-02-22T19:12:40.372Z,87.09
2024-02-22T19:15:09.172Z,86.88
2024-02-22T19:17:38.500Z,86.38
2024-02-22T19:20:06.634Z,86.84
2024-02-22T19:22:37.481Z,87.01
2024-02-22T19:25:04.623Z,86.65
2024-02-22T19:27:33.734Z,87.08
2024-02-22T19:30:00.501Z,87.35
2024-02-22T19:32:27.349Z,87.52
2024-02-22T19:34:54.311Z,87.59
2024-02-22T19:37:21.052Z,88.39
2024-02-22T19:39:54.584Z,88.35
2024-02-22T19:42:21.478Z,88.03
2024-02-22T19:44:48.121Z,87.89
2024-02-22T19:47:14.811Z,88.48
2024-02-22T19:49:41.552Z,87.79
2024-02-22T19:52:08.525Z,88.14
2024-02-22T19:54:37.254Z,88.50
2024-02-22T19:57:04.227Z,88.30
2024-02-22T19:59:31.112Z,88.91
2024-02-22T20:01:57.761Z,89.16
2024-02-22T20:04:24.526Z,89.94
2024-02-22T20:06:51.253Z,89.97
2024-02-22T20:09:17.893Z,89.67
2024-02-22T20:11:45.144Z,90.32
2024-02-22T20:14:11.960Z,90.47
2024-02-22T20:16:38.677Z,90.78
2024-02-22T20:19:05.677Z,91.55
2024-02-22T20:21:35.517Z,91.92
2024-02-22T20:24:03.056Z,92.11
2024-02-22T20:26:29.844Z,92.01
2024-02-22T20:28:57.100Z,91.80
2024-02-22T20:31:23.816Z,92.46
2024-02-22T20:33:52.270Z,92.70
2024-02-22T20:36:19.810Z,92.47
2024-02-22T20:38:46.551Z,93.17
2024-02-22T20:41:17.159Z,92.82
2024-02-22T20:43:44.329Z,92.65
2024-02-22T20:46:11.604Z,93.16
2024-02-22T20:48:39.410Z,92.81
2024-02-22T20:51:06.118Z,92.17
2024-02-22T20:53:32.932Z,92.87
2024-02-22T20:56:00.300Z,92.68
2024-02-22T20:58:29.814Z,92.51
2024-02-22T21:00:57.454Z,92.85
2024-02-22T21:03:26.195Z,92.57
2024-02-22T21:05:53.073Z,93.05
2024-02-22T21:08:20.295Z,92.37
2024-02-22T21:10:47.022Z,92.70
2024-02-22T21:13:16.567Z,93.13
2024-02-22T21:15:43.261Z,92.90
2024-02-22T21:18:10.047Z,93.24
2024-02-22T21:20:36.727Z,92.96
2024-02-22T21:23:04.752Z,93.49
2024-02-22T21:25:31.526Z,93.20
2024-02-22T21:27:58.237Z,93.51
2024-02-22T21:30:24.941Z,93.50
2024-02-22T21:32:51.695Z,93.68
2024-02-22T21:35:18.480Z,93.48
2024-02-22T21:37:45.194Z,93.32
2024-02-22T21:40:12.155Z,94.28
2024-02-22T21:42:38.861Z,94.28
2024-02-22T21:45:07.067Z,94.22
2024-02-22T21:47:35.655Z,94.67
2024-02-22T21:50:06.546Z,94.35
2024-02-22T21:52:33.307Z,94.77
2024-02-22T21:55:00.919Z,94.88
2024-02-22T21:57:27.813Z,95.12
2024-02-22T21:59:54.499Z,95.14
2024-02-22T22:02:21.257Z,95.53
2024-02-22T22:04:47.999Z,96.15
2024-02-22T22:07:14.643Z,95.74
2024-02-22T22:09:41.314Z,95.61
2024-02-22T22:12:08.398Z,95.56
2024-02-22T22:14:35.294Z,95.77
2024-02-22T22:17:02.042Z,95.55
2024-02-22T22:19:28.645Z,96.51
2024-02-22T22:21:55.244Z,96.93
2024-02-22T22:24:21.909Z,96.98
2024-02-22T22:26:48.564Z,97.08
2024-02-22T22:29:15.248Z,96.91
2024-02-22T22:31:46.050Z,96.51
2024-02-22T22:34:13.602Z,96.67
2024-02-22T22:36:40.477Z,96.61
2024-02-22T22:39:08.385Z,96.85
2024-02-22T22:41:36.218Z,96.70
2024-02-22T22:44:03.770Z,96.91
2024-02-22T22:46:30.579Z,97.68
2024-02-22T22:48:57.644Z,98.01
2024-02-22T22:51:24.747Z,98.12
2024-02-22T22:53:51.582Z,98.39
2024-02-22T22:56:18.370Z,98.49
2024-02-22T22:58:45.069Z,98.69
2024-02-22T23:01:17.796Z,99.21
2024-02-22T23:03:47.123Z,98.54
2024-02-22T23:06:17.577Z,99.09
2024-02-22T23:08:44.791Z,99.64
2024-02-22T23:11:11.672Z,99.73
2024-02-22T23:13:38.491Z,99.32
2024-02-22T23:16:06.070Z,99.42
2024-02-22T23:18:38.794Z,99.89
2024-02-22T23:21:06.267Z,99.98
2024-02-22T23:23:33.391Z,99.65
2024-02-22T23:26:00.235Z,100.00
2024-02-22T23:28:27.051Z,100.00
2024-02-22T23:30:53.766Z,100.00
2024-02-22T23:33:21.616Z,99.96
2024-02-22T23:35:50.483Z,100.00
2024-02-22T23:38:17.253Z,100.00
2024-02-22T23:40:54.223Z,100.00
2024-02-22T23:43:29.985Z,100.00
2024-02-22T23:45:56.628Z,100.00
2024-02-22T23:48:23.243Z,99.86
2024-02-22T23:50:49.928Z,99.66
2024-02-22T23:53:16.582Z,100.00
2024-02-22T23:55:43.290Z,100.00
2024-02-22T23:58:10.711Z,99.81
